Straumvik — LEYJ — position and weather

sailwx.info

Track history (hours):
 
Tides and Currents Weather Stations Pressure Air Temp Water Temp Dewpoint Dewpoint Depression Visibility Wind Speed Wind Dir Waves Ship Positions

Straumvik

Last reported at 2017-Mar-28 07:33 UTC. Time now 2017-Mar-28 08:30 UTC.
Position N 59°14' E 005°28'.

Length 50 m; draft 5 m.

Type: Ship. MMSI: 258260000.

Date/timePositionNaut miles runAvg speedWind from/ knotsBaromVisibWave heightAir tempDewpointWater temp
2017-Mar-28 07:33N 59°14' E 005°28'0 0.0
2017-Mar-28 06:33N 59°14' E 005°28'5 5.2
2017-Mar-28 05:33N 59°17' E 005°20'8 7.8
2017-Mar-28 04:33N 59°25' E 005°15'9 8.6
2017-Mar-28 03:33N 59°33' E 005°11'8 8.5
2017-Mar-28 02:33N 59°41' E 005°06'9 8.7
2017-Mar-28 01:33N 59°49' E 005°01'9 8.8
2017-Mar-28 00:33N 59°58' E 004°59'8 8.1
2017-Mar-27 23:33N 60°06' E 004°57'8 8.3
2017-Mar-27 22:33N 60°14' E 004°54'8 8.1
2017-Mar-27 21:33N 60°22' E 004°55'2 1.9
2017-Mar-27 20:32N 60°24' E 004°55'0 0.0
2017-Mar-27 19:32N 60°24' E 004°55'0 0.0
2017-Mar-27 18:32N 60°24' E 004°55'0 0.0
2017-Mar-27 17:32N 60°24' E 004°55'0 0.0
2017-Mar-27 16:32N 60°24' E 004°55'0 0.0
2017-Mar-27 15:32N 60°24' E 004°55'0 0.0
2017-Mar-27 14:32N 60°24' E 004°55'0 0.0
2017-Mar-27 13:29N 60°24' E 004°55'0 0.0
2017-Mar-27 12:32N 60°24' E 004°55'0 0.0
2017-Mar-27 11:32N 60°24' E 004°55'0 0.0
2017-Mar-27 10:32N 60°24' E 004°55'0 0.0
2017-Mar-27 09:32N 60°24' E 004°55'0 0.0
2017-Mar-27 08:32N 60°24' E 004°55'0 0.0
2017-Mar-27 07:32N 60°24' E 004°55'0 0.0
2017-Mar-27 06:32N 60°24' E 004°55'0 0.0
2017-Mar-27 05:32N 60°24' E 004°55'0 0.0
2017-Mar-27 04:32N 60°24' E 004°55'0 0.0
2017-Mar-27 03:32N 60°24' E 004°55'0 0.0
2017-Mar-27 02:32N 60°24' E 004°55'0 0.0
2017-Mar-27 01:32N 60°24' E 004°55'0 0.0
2017-Mar-27 00:32N 60°24' E 004°55'0 0.0
2017-Mar-26 23:32N 60°24' E 004°54'0 0.0
2017-Mar-26 22:32N 60°24' E 004°55'0 0.0
2017-Mar-26 21:32N 60°24' E 004°54'0 0.0
2017-Mar-26 20:32N 60°24' E 004°55'0 0.0
2017-Mar-26 19:32N 60°24' E 004°55'0 0.0
2017-Mar-26 18:32N 60°24' E 004°55'1 1.5
2017-Mar-26 17:33N 60°25' E 004°56'8 8.3
2017-Mar-26 16:33N 60°34' E 004°55'9 9.5
2017-Mar-26 15:33N 60°43' E 004°48'9 8.9
2017-Mar-26 14:33N 60°51' E 004°45'4 4.4
2017-Mar-26 13:33N 60°56' E 004°47'2 1.8
2017-Mar-26 12:33N 60°57' E 004°47'1 0.8
2017-Mar-26 11:33N 60°58' E 004°47'1 1.0
2017-Mar-26 10:33N 60°59' E 004°48'4 4.4
2017-Mar-26 09:33N 61°02' E 004°54'7 7.2
2017-Mar-26 08:33N 61°09' E 005°01'7 7.4
2017-Mar-26 07:33N 61°15' E 004°55'6 6.2
2017-Mar-26 06:33N 61°20' E 005°03'6 6.2
2017-Mar-26 05:33N 61°26' E 004°59'7 6.8
2017-Mar-26 04:34N 61°29' E 005°11'8 1.2
2017-Mar-25 22:19N 61°29' E 005°27'5 6.8
2017-Mar-25 21:32N 61°30' E 005°16'3 0.4
2017-Mar-25 14:33N 61°29' E 005°10'7 6.8
2017-Mar-25 13:33N 61°23' E 005°00'6 6.4
2017-Mar-25 12:32N 61°17' E 004°57'8 7.6
2017-Mar-25 11:33N 61°10' E 005°01'8 8.2
2017-Mar-25 10:34N 61°02' E 004°55'8 7.9
2017-Mar-25 09:33N 60°56' E 004°46'7 7.2
2017-Mar-25 08:33N 60°49' E 004°45'8 7.8
2017-Mar-25 07:33N 60°41' E 004°50'8 8.4
2017-Mar-25 06:33N 60°33' E 004°56'8 7.5
2017-Mar-25 05:33N 60°26' E 004°54'2 1.7
2017-Mar-25 04:33N 60°24' E 004°55'0 0.0
2017-Mar-25 03:33N 60°24' E 004°55'0 0.0
2017-Mar-25 02:33N 60°24' E 004°55'0 0.0
2017-Mar-25 01:30N 60°24' E 004°55'0 0.0
2017-Mar-25 00:33N 60°24' E 004°55'0 0.0
2017-Mar-24 23:33N 60°24' E 004°55'0 0.0
2017-Mar-24 22:33N 60°24' E 004°55'0 0.0
2017-Mar-24 21:33N 60°24' E 004°55'0 0.0
2017-Mar-24 20:33N 60°24' E 004°55'0 0.0
2017-Mar-24 19:33N 60°24' E 004°55'0 0.0
2017-Mar-24 18:33N 60°24' E 004°55'0 0.0
2017-Mar-24 17:33N 60°24' E 004°55'0 0.0
2017-Mar-24 16:33N 60°24' E 004°55'0 0.0
2017-Mar-24 15:33N 60°24' E 004°55'0 0.0
2017-Mar-24 14:33N 60°24' E 004°55'0 0.0
2017-Mar-24 13:33N 60°24' E 004°55'0 0.0
2017-Mar-24 12:33N 60°24' E 004°55'0 0.0
2017-Mar-24 11:33N 60°24' E 004°55'0 0.0
2017-Mar-24 10:33N 60°24' E 004°55'0 0.0
2017-Mar-24 09:33N 60°24' E 004°55'0 0.0
2017-Mar-24 08:33N 60°24' E 004°55'0 0.0
2017-Mar-24 07:33N 60°24' E 004°55'0 0.0
2017-Mar-24 06:33N 60°24' E 004°55'0 0.0
2017-Mar-24 05:33N 60°24' E 004°55'0 0.0
2017-Mar-24 04:33N 60°24' E 004°55'0 0.0
2017-Mar-24 03:33N 60°24' E 004°55'0 0.0
2017-Mar-24 02:33N 60°24' E 004°55'0 0.0
2017-Mar-24 01:33N 60°24' E 004°55'0 0.0
2017-Mar-24 00:33N 60°24' E 004°55'0 0.0
2017-Mar-23 23:32N 60°24' E 004°55'1 1.4
2017-Mar-23 22:32N 60°25' E 004°56'8 8.4
2017-Mar-23 21:33N 60°34' E 004°55'9 9.4
2017-Mar-23 20:33N 60°43' E 004°48'8 7.9
2017-Mar-23 19:32N 60°51' E 004°47'9 8.9
2017-Mar-23 18:33N 60°48' E 005°05'1 0.7
2017-Mar-23 17:33N 60°48' E 005°04'0 0.0
2017-Mar-23 16:33N 60°48' E 005°04'0 0.0
2017-Mar-23 15:06N 60°48' E 005°04'0 0.0
2017-Mar-23 14:33N 60°48' E 005°04'4 3.8
2017-Mar-23 13:33N 60°51' E 005°02'0 0.0
2017-Mar-23 12:33N 60°51' E 005°02'0 0.0
2017-Mar-23 11:33N 60°51' E 005°02'4 4.4
2017-Mar-23 10:33N 60°47' E 004°60'9 8.6
2017-Mar-23 09:33N 60°39' E 005°07'4 3.9
2017-Mar-23 08:33N 60°36' E 005°12'0 0.0
2017-Mar-23 07:33N 60°36' E 005°12'0 0.0
2017-Mar-23 06:33N 60°36' E 005°12'0 0.0
2017-Mar-23 05:33N 60°36' E 005°12'0 0.0
2017-Mar-23 04:33N 60°36' E 005°12'0 0.0
2017-Mar-23 03:30N 60°36' E 005°12'0 0.0
2017-Mar-23 02:33N 60°36' E 005°12'0 0.0
2017-Mar-23 01:33N 60°36' E 005°12'0 0.0
2017-Mar-23 00:33N 60°36' E 005°12'3 2.8
2017-Mar-22 23:33N 60°39' E 005°09'8 7.8
2017-Mar-22 22:33N 60°46' E 005°02'5 5.3
2017-Mar-22 21:33N 60°51' E 005°03'0 0.4
2017-Mar-22 20:31N 60°51' E 005°02'4 4.6
2017-Mar-22 19:33N 60°51' E 004°53'6 6.2
2017-Mar-22 18:33N 60°45' E 004°47'9 9.5
2017-Mar-22 17:33N 60°36' E 004°54'9 9.5
2017-Mar-22 16:33N 60°27' E 005°01'10 9.5
2017-Mar-22 15:33N 60°20' E 005°12'9 9.1
2017-Mar-22 14:33N 60°11' E 005°14'10 9.7
2017-Mar-22 13:33N 60°01' E 005°20'10 9.5
2017-Mar-22 12:33N 59°54' E 005°32'9 8.9
2017-Mar-22 11:33N 59°45' E 005°30'1 1.1
2017-Mar-22 10:33N 59°45' E 005°28'0 0.0
2017-Mar-22 09:33N 59°45' E 005°28'0 0.0
2017-Mar-22 08:33N 59°45' E 005°28'0 0.0
2017-Mar-22 07:33N 59°45' E 005°28'0 0.0
2017-Mar-22 06:33N 59°45' E 005°28'0 0.4
2017-Mar-22 05:33N 59°45' E 005°28'3 3.3
2017-Mar-22 04:33N 59°42' E 005°25'4 3.8
2017-Mar-22 03:33N 59°39' E 005°20'4 3.9
2017-Mar-22 02:33N 59°35' E 005°16'4 4.2
2017-Mar-22 01:33N 59°32' E 005°13'4 4.5
2017-Mar-22 00:33N 59°27' E 005°14'6 5.7
2017-Mar-21 23:33N 59°22' E 005°18'5 5.3
2017-Mar-21 22:33N 59°17' E 005°20'5 4.5
2017-Mar-21 21:33N 59°14' E 005°27'5 5.3
2017-Mar-21 20:33N 59°10' E 005°35'5 5.4
2017-Mar-21 19:33N 59°08' E 005°44'5 5.4
2017-Mar-21 18:33N 59°06' E 005°54'0 0.4
2017-Mar-21 17:32N 59°05' E 005°54'0 0.4
2017-Mar-21 16:33N 59°06' E 005°54'1 0.8
2017-Mar-21 15:33N 59°06' E 005°55'1 1.4
2017-Mar-21 14:33N 59°05' E 005°53'1 0.9
2017-Mar-21 13:33N 59°06' E 005°54'3 3.3
2017-Mar-21 12:33N 59°04' E 005°49'6 5.9
2017-Mar-21 11:33N 58°59' E 005°43'0 0.4
2017-Mar-21 10:32N 58°59' E 005°44'0 0.0
2017-Mar-21 09:32N 58°59' E 005°44'0 0.0
2017-Mar-21 08:32N 58°59' E 005°44'0 0.0
2017-Mar-21 07:32N 58°59' E 005°44'0 0.1
2017-Mar-21 06:33N 58°59' E 005°44'1 0.7
2017-Mar-21 05:33N 58°59' E 005°43'3 3.3
2017-Mar-21 04:33N 59°02' E 005°46'4 3.6
2017-Mar-21 03:33N 59°04' E 005°52'2 1.8
2017-Mar-21 02:33N 59°05' E 005°54'0 0.3
2017-Mar-21 01:33N 59°06' E 005°54'0 0.5
2017-Mar-21 00:33N 59°06' E 005°54'0 0.1
2017-Mar-20 23:33N 59°06' E 005°54'2 1.9
2017-Mar-20 22:33N 59°04' E 005°52'5 4.8
2017-Mar-20 21:33N 59°01' E 005°45'2 2.3
2017-Mar-20 20:31N 58°59' E 005°43'0 0.0
2017-Mar-20 19:31N 58°59' E 005°43'0 0.0
2017-Mar-20 18:31N 58°59' E 005°43'0 0.2
2017-Mar-20 17:33N 58°59' E 005°43'1 0.6
2017-Mar-20 16:33N 58°60' E 005°42'0 0.1
2017-Mar-20 15:33N 58°60' E 005°42'7 7.3
2017-Mar-20 14:33N 59°05' E 005°52'1 1.0
2017-Mar-20 13:32N 59°05' E 005°54'6 5.9
2017-Mar-20 12:33N 59°09' E 005°46'2 1.5
2017-Mar-20 11:31N 59°10' E 005°48'0 0.0
2017-Mar-20 10:31N 59°10' E 005°48'0 0.0
2017-Mar-20 09:31N 59°10' E 005°48'0 0.0
2017-Mar-20 08:31N 59°10' E 005°48'0 0.0
2017-Mar-20 07:31N 59°10' E 005°48'0 0.0
2017-Mar-20 06:34N 59°10' E 005°48'0 0.0
2017-Mar-20 05:31N 59°10' E 005°48'0 0.0
2017-Mar-20 04:31N 59°10' E 005°48'0 0.0
2017-Mar-20 03:34N 59°10' E 005°48'0 0.0
2017-Mar-20 02:31N 59°10' E 005°48'0 0.0
2017-Mar-20 01:34N 59°10' E 005°48'0 0.0
2017-Mar-20 00:34N 59°10' E 005°48'0 0.0
2017-Mar-19 23:34N 59°10' E 005°48'0 0.0
2017-Mar-19 22:34N 59°10' E 005°48'0 0.0
2017-Mar-19 21:34N 59°10' E 005°48'0 0.0
2017-Mar-19 20:31N 59°10' E 005°48'0 0.0
2017-Mar-19 19:31N 59°10' E 005°48'0 0.0
2017-Mar-19 18:34N 59°10' E 005°48'0 0.0
2017-Mar-19 17:31N 59°10' E 005°48'0 0.0
2017-Mar-19 16:34N 59°10' E 005°48'0 0.5
2017-Mar-19 15:33N 59°10' E 005°48'4 4.1
2017-Mar-19 14:33N 59°10' E 005°56'7 6.5
2017-Mar-19 13:33N 59°09' E 006°08'1 0.8
2017-Mar-19 12:31N 59°09' E 006°10'0 0.1
2017-Mar-19 11:33N 59°09' E 006°10'0 0.0
2017-Mar-19 10:33N 59°09' E 006°10'0 0.0
2017-Mar-19 09:30N 59°09' E 006°10'0 0.0
2017-Mar-19 08:33N 59°09' E 006°10'0 0.0
2017-Mar-19 07:30N 59°09' E 006°10'0 0.0
2017-Mar-19 06:33N 59°09' E 006°10'0 0.0
2017-Mar-19 05:33N 59°09' E 006°10'0 0.0
2017-Mar-19 04:33N 59°09' E 006°10'0 0.0
2017-Mar-19 03:33N 59°09' E 006°10'0 0.0
2017-Mar-19 02:33N 59°09' E 006°10'0 0.0
2017-Mar-19 01:33N 59°09' E 006°10'0 0.0
2017-Mar-19 00:30N 59°09' E 006°10'0 0.0
2017-Mar-18 23:33N 59°09' E 006°10'0 0.0
2017-Mar-18 22:33N 59°09' E 006°10'0 0.0
2017-Mar-18 21:33N 59°09' E 006°10'0 0.0
2017-Mar-18 20:30N 59°09' E 006°10'0 0.4
2017-Mar-18 19:33N 59°09' E 006°09'8 8.5
2017-Mar-18 18:33N 59°06' E 005°54'9 9.1
2017-Mar-18 17:33N 59°09' E 005°37'9 9.4
2017-Mar-18 16:33N 59°15' E 005°23'10 9.5
2017-Mar-18 15:33N 59°24' E 005°16'10 9.8
2017-Mar-18 14:33N 59°34' E 005°14'1010.3
2017-Mar-18 13:32N 59°42' E 005°26'9 9.0
2017-Mar-18 12:33N 59°49' E 005°37'3 3.0
2017-Mar-18 11:32N 59°50' E 005°43'0 0.0
2017-Mar-18 10:29N 59°50' E 005°43'0 0.0
2017-Mar-18 09:32N 59°50' E 005°43'0 0.0
2017-Mar-18 08:32N 59°50' E 005°43'  
Track history (hours):
 
Tides and Currents Weather Stations Pressure Air Temp Water Temp Dewpoint Dewpoint Depression Visibility Wind Speed Wind Dir Waves Ship Positions

Straumvik

Last reported at 2017-Mar-28 07:33 UTC. Time now 2017-Mar-28 08:30 UTC.
Position N 59°14' E 005°28'.

Length 50 m; draft 5 m.

Type: Ship. MMSI: 258260000.

Date/timePositionNaut miles runAvg speedWind from/ knotsBaromVisibWave heightAir tempDewpointWater temp
2017-Mar-28 07:33N 59°14' E 005°28'0 0.0
2017-Mar-28 06:33N 59°14' E 005°28'5 5.2
2017-Mar-28 05:33N 59°17' E 005°20'8 7.8
2017-Mar-28 04:33N 59°25' E 005°15'9 8.6
2017-Mar-28 03:33N 59°33' E 005°11'8 8.5
2017-Mar-28 02:33N 59°41' E 005°06'9 8.7
2017-Mar-28 01:33N 59°49' E 005°01'9 8.8
2017-Mar-28 00:33N 59°58' E 004°59'8 8.1
2017-Mar-27 23:33N 60°06' E 004°57'8 8.3
2017-Mar-27 22:33N 60°14' E 004°54'8 8.1
2017-Mar-27 21:33N 60°22' E 004°55'2 1.9
2017-Mar-27 20:32N 60°24' E 004°55'0 0.0
2017-Mar-27 19:32N 60°24' E 004°55'0 0.0
2017-Mar-27 18:32N 60°24' E 004°55'0 0.0
2017-Mar-27 17:32N 60°24' E 004°55'0 0.0
2017-Mar-27 16:32N 60°24' E 004°55'0 0.0
2017-Mar-27 15:32N 60°24' E 004°55'0 0.0
2017-Mar-27 14:32N 60°24' E 004°55'0 0.0
2017-Mar-27 13:29N 60°24' E 004°55'0 0.0
2017-Mar-27 12:32N 60°24' E 004°55'0 0.0
2017-Mar-27 11:32N 60°24' E 004°55'0 0.0
2017-Mar-27 10:32N 60°24' E 004°55'0 0.0
2017-Mar-27 09:32N 60°24' E 004°55'0 0.0
2017-Mar-27 08:32N 60°24' E 004°55'0 0.0
2017-Mar-27 07:32N 60°24' E 004°55'0 0.0
2017-Mar-27 06:32N 60°24' E 004°55'0 0.0
2017-Mar-27 05:32N 60°24' E 004°55'0 0.0
2017-Mar-27 04:32N 60°24' E 004°55'0 0.0
2017-Mar-27 03:32N 60°24' E 004°55'0 0.0
2017-Mar-27 02:32N 60°24' E 004°55'0 0.0
2017-Mar-27 01:32N 60°24' E 004°55'0 0.0
2017-Mar-27 00:32N 60°24' E 004°55'0 0.0
2017-Mar-26 23:32N 60°24' E 004°54'0 0.0
2017-Mar-26 22:32N 60°24' E 004°55'0 0.0
2017-Mar-26 21:32N 60°24' E 004°54'0 0.0
2017-Mar-26 20:32N 60°24' E 004°55'0 0.0
2017-Mar-26 19:32N 60°24' E 004°55'0 0.0
2017-Mar-26 18:32N 60°24' E 004°55'1 1.5
2017-Mar-26 17:33N 60°25' E 004°56'8 8.3
2017-Mar-26 16:33N 60°34' E 004°55'9 9.5
2017-Mar-26 15:33N 60°43' E 004°48'9 8.9
2017-Mar-26 14:33N 60°51' E 004°45'4 4.4
2017-Mar-26 13:33N 60°56' E 004°47'2 1.8
2017-Mar-26 12:33N 60°57' E 004°47'1 0.8
2017-Mar-26 11:33N 60°58' E 004°47'1 1.0
2017-Mar-26 10:33N 60°59' E 004°48'4 4.4
2017-Mar-26 09:33N 61°02' E 004°54'7 7.2
2017-Mar-26 08:33N 61°09' E 005°01'7 7.4
2017-Mar-26 07:33N 61°15' E 004°55'6 6.2
2017-Mar-26 06:33N 61°20' E 005°03'6 6.2
2017-Mar-26 05:33N 61°26' E 004°59'7 6.8
2017-Mar-26 04:34N 61°29' E 005°11'8 1.2
2017-Mar-25 22:19N 61°29' E 005°27'5 6.8
2017-Mar-25 21:32N 61°30' E 005°16'3 0.4
2017-Mar-25 14:33N 61°29' E 005°10'7 6.8
2017-Mar-25 13:33N 61°23' E 005°00'6 6.4
2017-Mar-25 12:32N 61°17' E 004°57'8 7.6
2017-Mar-25 11:33N 61°10' E 005°01'8 8.2
2017-Mar-25 10:34N 61°02' E 004°55'8 7.9
2017-Mar-25 09:33N 60°56' E 004°46'7 7.2
2017-Mar-25 08:33N 60°49' E 004°45'8 7.8
2017-Mar-25 07:33N 60°41' E 004°50'8 8.4
2017-Mar-25 06:33N 60°33' E 004°56'8 7.5
2017-Mar-25 05:33N 60°26' E 004°54'2 1.7
2017-Mar-25 04:33N 60°24' E 004°55'0 0.0
2017-Mar-25 03:33N 60°24' E 004°55'0 0.0
2017-Mar-25 02:33N 60°24' E 004°55'0 0.0
2017-Mar-25 01:30N 60°24' E 004°55'0 0.0
2017-Mar-25 00:33N 60°24' E 004°55'0 0.0
2017-Mar-24 23:33N 60°24' E 004°55'0 0.0
2017-Mar-24 22:33N 60°24' E 004°55'0 0.0
2017-Mar-24 21:33N 60°24' E 004°55'0 0.0
2017-Mar-24 20:33N 60°24' E 004°55'0 0.0
2017-Mar-24 19:33N 60°24' E 004°55'0 0.0
2017-Mar-24 18:33N 60°24' E 004°55'0 0.0
2017-Mar-24 17:33N 60°24' E 004°55'0 0.0
2017-Mar-24 16:33N 60°24' E 004°55'0 0.0
2017-Mar-24 15:33N 60°24' E 004°55'0 0.0
2017-Mar-24 14:33N 60°24' E 004°55'0 0.0
2017-Mar-24 13:33N 60°24' E 004°55'0 0.0
2017-Mar-24 12:33N 60°24' E 004°55'0 0.0
2017-Mar-24 11:33N 60°24' E 004°55'0 0.0
2017-Mar-24 10:33N 60°24' E 004°55'0 0.0
2017-Mar-24 09:33N 60°24' E 004°55'0 0.0
2017-Mar-24 08:33N 60°24' E 004°55'0 0.0
2017-Mar-24 07:33N 60°24' E 004°55'0 0.0
2017-Mar-24 06:33N 60°24' E 004°55'0 0.0
2017-Mar-24 05:33N 60°24' E 004°55'0 0.0
2017-Mar-24 04:33N 60°24' E 004°55'0 0.0
2017-Mar-24 03:33N 60°24' E 004°55'0 0.0
2017-Mar-24 02:33N 60°24' E 004°55'0 0.0
2017-Mar-24 01:33N 60°24' E 004°55'0 0.0
2017-Mar-24 00:33N 60°24' E 004°55'0 0.0
2017-Mar-23 23:32N 60°24' E 004°55'1 1.4
2017-Mar-23 22:32N 60°25' E 004°56'8 8.4
2017-Mar-23 21:33N 60°34' E 004°55'9 9.4
2017-Mar-23 20:33N 60°43' E 004°48'8 7.9
2017-Mar-23 19:32N 60°51' E 004°47'9 8.9
2017-Mar-23 18:33N 60°48' E 005°05'1 0.7
2017-Mar-23 17:33N 60°48' E 005°04'0 0.0
2017-Mar-23 16:33N 60°48' E 005°04'0 0.0
2017-Mar-23 15:06N 60°48' E 005°04'0 0.0
2017-Mar-23 14:33N 60°48' E 005°04'4 3.8
2017-Mar-23 13:33N 60°51' E 005°02'0 0.0
2017-Mar-23 12:33N 60°51' E 005°02'0 0.0
2017-Mar-23 11:33N 60°51' E 005°02'4 4.4
2017-Mar-23 10:33N 60°47' E 004°60'9 8.6
2017-Mar-23 09:33N 60°39' E 005°07'4 3.9
2017-Mar-23 08:33N 60°36' E 005°12'0 0.0
2017-Mar-23 07:33N 60°36' E 005°12'0 0.0
2017-Mar-23 06:33N 60°36' E 005°12'0 0.0
2017-Mar-23 05:33N 60°36' E 005°12'0 0.0
2017-Mar-23 04:33N 60°36' E 005°12'0 0.0
2017-Mar-23 03:30N 60°36' E 005°12'0 0.0
2017-Mar-23 02:33N 60°36' E 005°12'0 0.0
2017-Mar-23 01:33N 60°36' E 005°12'0 0.0
2017-Mar-23 00:33N 60°36' E 005°12'3 2.8
2017-Mar-22 23:33N 60°39' E 005°09'8 7.8
2017-Mar-22 22:33N 60°46' E 005°02'5 5.3
2017-Mar-22 21:33N 60°51' E 005°03'0 0.4
2017-Mar-22 20:31N 60°51' E 005°02'4 4.6
2017-Mar-22 19:33N 60°51' E 004°53'6 6.2
2017-Mar-22 18:33N 60°45' E 004°47'9 9.5
2017-Mar-22 17:33N 60°36' E 004°54'9 9.5
2017-Mar-22 16:33N 60°27' E 005°01'10 9.5
2017-Mar-22 15:33N 60°20' E 005°12'9 9.1
2017-Mar-22 14:33N 60°11' E 005°14'10 9.7
2017-Mar-22 13:33N 60°01' E 005°20'10 9.5
2017-Mar-22 12:33N 59°54' E 005°32'9 8.9
2017-Mar-22 11:33N 59°45' E 005°30'1 1.1
2017-Mar-22 10:33N 59°45' E 005°28'0 0.0
2017-Mar-22 09:33N 59°45' E 005°28'0 0.0
2017-Mar-22 08:33N 59°45' E 005°28'0 0.0
2017-Mar-22 07:33N 59°45' E 005°28'0 0.0
2017-Mar-22 06:33N 59°45' E 005°28'0 0.4
2017-Mar-22 05:33N 59°45' E 005°28'3 3.3
2017-Mar-22 04:33N 59°42' E 005°25'4 3.8
2017-Mar-22 03:33N 59°39' E 005°20'4 3.9
2017-Mar-22 02:33N 59°35' E 005°16'4 4.2
2017-Mar-22 01:33N 59°32' E 005°13'4 4.5
2017-Mar-22 00:33N 59°27' E 005°14'6 5.7
2017-Mar-21 23:33N 59°22' E 005°18'5 5.3
2017-Mar-21 22:33N 59°17' E 005°20'5 4.5
2017-Mar-21 21:33N 59°14' E 005°27'5 5.3
2017-Mar-21 20:33N 59°10' E 005°35'5 5.4
2017-Mar-21 19:33N 59°08' E 005°44'5 5.4
2017-Mar-21 18:33N 59°06' E 005°54'0 0.4
2017-Mar-21 17:32N 59°05' E 005°54'0 0.4
2017-Mar-21 16:33N 59°06' E 005°54'1 0.8
2017-Mar-21 15:33N 59°06' E 005°55'1 1.4
2017-Mar-21 14:33N 59°05' E 005°53'1 0.9
2017-Mar-21 13:33N 59°06' E 005°54'3 3.3
2017-Mar-21 12:33N 59°04' E 005°49'6 5.9
2017-Mar-21 11:33N 58°59' E 005°43'0 0.4
2017-Mar-21 10:32N 58°59' E 005°44'0 0.0
2017-Mar-21 09:32N 58°59' E 005°44'0 0.0
2017-Mar-21 08:32N 58°59' E 005°44'0 0.0
2017-Mar-21 07:32N 58°59' E 005°44'0 0.1
2017-Mar-21 06:33N 58°59' E 005°44'1 0.7
2017-Mar-21 05:33N 58°59' E 005°43'3 3.3
2017-Mar-21 04:33N 59°02' E 005°46'4 3.6
2017-Mar-21 03:33N 59°04' E 005°52'2 1.8
2017-Mar-21 02:33N 59°05' E 005°54'0 0.3
2017-Mar-21 01:33N 59°06' E 005°54'0 0.5
2017-Mar-21 00:33N 59°06' E 005°54'0 0.1
2017-Mar-20 23:33N 59°06' E 005°54'2 1.9
2017-Mar-20 22:33N 59°04' E 005°52'5 4.8
2017-Mar-20 21:33N 59°01' E 005°45'2 2.3
2017-Mar-20 20:31N 58°59' E 005°43'0 0.0
2017-Mar-20 19:31N 58°59' E 005°43'0 0.0
2017-Mar-20 18:31N 58°59' E 005°43'0 0.2
2017-Mar-20 17:33N 58°59' E 005°43'1 0.6
2017-Mar-20 16:33N 58°60' E 005°42'0 0.1
2017-Mar-20 15:33N 58°60' E 005°42'7 7.3
2017-Mar-20 14:33N 59°05' E 005°52'1 1.0
2017-Mar-20 13:32N 59°05' E 005°54'6 5.9
2017-Mar-20 12:33N 59°09' E 005°46'2 1.5
2017-Mar-20 11:31N 59°10' E 005°48'0 0.0
2017-Mar-20 10:31N 59°10' E 005°48'0 0.0
2017-Mar-20 09:31N 59°10' E 005°48'0 0.0
2017-Mar-20 08:31N 59°10' E 005°48'0 0.0
2017-Mar-20 07:31N 59°10' E 005°48'0 0.0
2017-Mar-20 06:34N 59°10' E 005°48'0 0.0
2017-Mar-20 05:31N 59°10' E 005°48'0 0.0
2017-Mar-20 04:31N 59°10' E 005°48'0 0.0
2017-Mar-20 03:34N 59°10' E 005°48'0 0.0
2017-Mar-20 02:31N 59°10' E 005°48'0 0.0
2017-Mar-20 01:34N 59°10' E 005°48'0 0.0
2017-Mar-20 00:34N 59°10' E 005°48'0 0.0
2017-Mar-19 23:34N 59°10' E 005°48'0 0.0
2017-Mar-19 22:34N 59°10' E 005°48'0 0.0
2017-Mar-19 21:34N 59°10' E 005°48'0 0.0
2017-Mar-19 20:31N 59°10' E 005°48'0 0.0
2017-Mar-19 19:31N 59°10' E 005°48'0 0.0
2017-Mar-19 18:34N 59°10' E 005°48'0 0.0
2017-Mar-19 17:31N 59°10' E 005°48'0 0.0
2017-Mar-19 16:34N 59°10' E 005°48'0 0.5
2017-Mar-19 15:33N 59°10' E 005°48'4 4.1
2017-Mar-19 14:33N 59°10' E 005°56'7 6.5
2017-Mar-19 13:33N 59°09' E 006°08'1 0.8
2017-Mar-19 12:31N 59°09' E 006°10'0 0.1
2017-Mar-19 11:33N 59°09' E 006°10'0 0.0
2017-Mar-19 10:33N 59°09' E 006°10'0 0.0
2017-Mar-19 09:30N 59°09' E 006°10'0 0.0
2017-Mar-19 08:33N 59°09' E 006°10'0 0.0
2017-Mar-19 07:30N 59°09' E 006°10'0 0.0
2017-Mar-19 06:33N 59°09' E 006°10'0 0.0
2017-Mar-19 05:33N 59°09' E 006°10'0 0.0
2017-Mar-19 04:33N 59°09' E 006°10'0 0.0
2017-Mar-19 03:33N 59°09' E 006°10'0 0.0
2017-Mar-19 02:33N 59°09' E 006°10'0 0.0
2017-Mar-19 01:33N 59°09' E 006°10'0 0.0
2017-Mar-19 00:30N 59°09' E 006°10'0 0.0
2017-Mar-18 23:33N 59°09' E 006°10'0 0.0
2017-Mar-18 22:33N 59°09' E 006°10'0 0.0
2017-Mar-18 21:33N 59°09' E 006°10'0 0.0
2017-Mar-18 20:30N 59°09' E 006°10'0 0.4
2017-Mar-18 19:33N 59°09' E 006°09'8 8.5
2017-Mar-18 18:33N 59°06' E 005°54'9 9.1
2017-Mar-18 17:33N 59°09' E 005°37'9 9.4
2017-Mar-18 16:33N 59°15' E 005°23'10 9.5
2017-Mar-18 15:33N 59°24' E 005°16'10 9.8
2017-Mar-18 14:33N 59°34' E 005°14'1010.3
2017-Mar-18 13:32N 59°42' E 005°26'9 9.0
2017-Mar-18 12:33N 59°49' E 005°37'3 3.0
2017-Mar-18 11:32N 59°50' E 005°43'0 0.0
2017-Mar-18 10:29N 59°50' E 005°43'0 0.0
2017-Mar-18 09:32N 59°50' E 005°43'0 0.0
2017-Mar-18 08:32N 59°50' E 005°43'  

Dump ship's entire track history